sensor_id;sensor_type;location;lat;lon;timestamp;P1;durP1;ratioP1;P2;durP2;ratioP2
13048;SDS011;6591;51.446;5.404;2023-05-10T00:00:42;8.77;;;7.87;;
13048;SDS011;6591;51.446;5.404;2023-05-10T00:03:09;10.03;;;8.57;;
13048;SDS011;6591;51.446;5.404;2023-05-10T00:05:36;9.60;;;8.57;;
13048;SDS011;6591;51.446;5.404;2023-05-10T00:08:04;12.20;;;10.23;;
13048;SDS011;6591;51.446;5.404;2023-05-10T00:10:31;10.87;;;9.73;;
13048;SDS011;6591;51.446;5.404;2023-05-10T00:12:58;12.10;;;9.80;;
13048;SDS011;6591;51.446;5.404;2023-05-10T00:15:25;12.13;;;10.17;;
13048;SDS011;6591;51.446;5.404;2023-05-10T00:17:52;13.10;;;11.70;;
13048;SDS011;6591;51.446;5.404;2023-05-10T00:20:19;13.00;;;11.53;;
13048;SDS011;6591;51.446;5.404;2023-05-10T00:22:46;15.20;;;11.87;;
13048;SDS011;6591;51.446;5.404;2023-05-10T00:25:13;13.53;;;11.80;;
13048;SDS011;6591;51.446;5.404;2023-05-10T00:27:40;15.83;;;13.33;;
13048;SDS011;6591;51.446;5.404;2023-05-10T00:30:08;15.30;;;12.93;;
13048;SDS011;6591;51.446;5.404;2023-05-10T00:32:35;16.13;;;13.40;;
13048;SDS011;6591;51.446;5.404;2023-05-10T00:35:03;16.60;;;13.87;;
13048;SDS011;6591;51.446;5.404;2023-05-10T00:37:31;16.13;;;14.13;;
13048;SDS011;6591;51.446;5.404;2023-05-10T00:39:58;18.60;;;14.13;;
13048;SDS011;6591;51.446;5.404;2023-05-10T00:42:26;17.43;;;14.13;;
13048;SDS011;6591;51.446;5.404;2023-05-10T00:44:54;20.47;;;15.70;;
13048;SDS011;6591;51.446;5.404;2023-05-10T00:47:21;18.07;;;15.27;;
13048;SDS011;6591;51.446;5.404;2023-05-10T00:49:48;19.80;;;15.17;;
13048;SDS011;6591;51.446;5.404;2023-05-10T00:52:16;20.00;;;15.67;;
13048;SDS011;6591;51.446;5.404;2023-05-10T00:54:43;20.57;;;15.97;;
13048;SDS011;6591;51.446;5.404;2023-05-10T00:57:11;21.57;;;16.53;;
13048;SDS011;6591;51.446;5.404;2023-05-10T00:59:38;20.10;;;15.50;;
13048;SDS011;6591;51.446;5.404;2023-05-10T01:02:05;19.83;;;15.87;;
13048;SDS011;6591;51.446;5.404;2023-05-10T01:04:33;20.50;;;16.23;;
13048;SDS011;6591;51.446;5.404;2023-05-10T01:07:02;20.60;;;15.93;;
13048;SDS011;6591;51.446;5.404;2023-05-10T01:09:29;20.57;;;16.10;;
13048;SDS011;6591;51.446;5.404;2023-05-10T01:11:56;19.40;;;15.80;;
13048;SDS011;6591;51.446;5.404;2023-05-10T01:14:23;20.70;;;16.03;;
13048;SDS011;6591;51.446;5.404;2023-05-10T01:16:52;21.30;;;16.53;;
13048;SDS011;6591;51.446;5.404;2023-05-10T01:19:25;22.23;;;17.27;;
13048;SDS011;6591;51.446;5.404;2023-05-10T01:22:09;20.83;;;16.33;;
13048;SDS011;6591;51.446;5.404;2023-05-10T01:25:22;23.17;;;17.13;;
13048;SDS011;6591;51.446;5.404;2023-05-10T01:31:23;25.90;;;18.50;;
13048;SDS011;6591;51.446;5.404;2023-05-10T01:34:19;22.97;;;17.80;;
13048;SDS011;6591;51.446;5.404;2023-05-10T01:36:54;22.50;;;17.83;;
13048;SDS011;6591;51.446;5.404;2023-05-10T01:39:33;26.10;;;19.07;;
13048;SDS011;6591;51.446;5.404;2023-05-10T01:42:17;25.37;;;19.27;;
13048;SDS011;6591;51.446;5.404;2023-05-10T01:45:08;27.17;;;19.83;;
13048;SDS011;6591;51.446;5.404;2023-05-10T01:48:06;23.07;;;17.50;;
13048;SDS011;6591;51.446;5.404;2023-05-10T01:50:38;25.60;;;20.97;;
13048;SDS011;6591;51.446;5.404;2023-05-10T01:53:11;26.20;;;20.23;;
13048;SDS011;6591;51.446;5.404;2023-05-10T01:55:46;26.03;;;20.37;;
13048;SDS011;6591;51.446;5.404;2023-05-10T01:58:26;27.33;;;20.60;;
13048;SDS011;6591;51.446;5.404;2023-05-10T02:00:58;26.57;;;20.37;;
13048;SDS011;6591;51.446;5.404;2023-05-10T02:03:30;31.80;;;23.00;;
13048;SDS011;6591;51.446;5.404;2023-05-10T02:06:00;30.50;;;23.40;;
13048;SDS011;6591;51.446;5.404;2023-05-10T02:08:29;29.67;;;22.67;;
13048;SDS011;6591;51.446;5.404;2023-05-10T02:10:57;29.23;;;23.33;;
13048;SDS011;6591;51.446;5.404;2023-05-10T02:13:26;30.90;;;23.23;;
13048;SDS011;6591;51.446;5.404;2023-05-10T02:15:56;32.47;;;24.70;;
13048;SDS011;6591;51.446;5.404;2023-05-10T02:18:24;33.93;;;25.47;;
13048;SDS011;6591;51.446;5.404;2023-05-10T02:20:54;37.50;;;26.73;;
13048;SDS011;6591;51.446;5.404;2023-05-10T02:23:24;38.80;;;27.37;;
13048;SDS011;6591;51.446;5.404;2023-05-10T02:25:52;34.63;;;26.17;;
13048;SDS011;6591;51.446;5.404;2023-05-10T02:28:23;38.13;;;28.20;;
13048;SDS011;6591;51.446;5.404;2023-05-10T02:30:54;38.53;;;28.40;;
13048;SDS011;6591;51.446;5.404;2023-05-10T02:33:22;37.30;;;27.17;;
13048;SDS011;6591;51.446;5.404;2023-05-10T02:35:51;34.60;;;26.17;;
13048;SDS011;6591;51.446;5.404;2023-05-10T02:38:19;35.33;;;26.10;;
13048;SDS011;6591;51.446;5.404;2023-05-10T02:40:49;34.70;;;26.20;;
13048;SDS011;6591;51.446;5.404;2023-05-10T02:43:18;33.40;;;25.70;;
13048;SDS011;6591;51.446;5.404;2023-05-10T02:45:49;35.70;;;24.53;;
13048;SDS011;6591;51.446;5.404;2023-05-10T02:48:16;33.77;;;24.97;;
13048;SDS011;6591;51.446;5.404;2023-05-10T02:50:44;31.47;;;24.30;;
13048;SDS011;6591;51.446;5.404;2023-05-10T02:53:22;34.10;;;23.60;;
13048;SDS011;6591;51.446;5.404;2023-05-10T02:55:58;29.80;;;23.53;;
13048;SDS011;6591;51.446;5.404;2023-05-10T02:58:37;29.77;;;21.43;;
13048;SDS011;6591;51.446;5.404;2023-05-10T03:01:04;28.20;;;22.17;;
13048;SDS011;6591;51.446;5.404;2023-05-10T03:03:33;27.37;;;20.87;;
13048;SDS011;6591;51.446;5.404;2023-05-10T03:06:00;24.77;;;20.33;;
13048;SDS011;6591;51.446;5.404;2023-05-10T03:08:27;27.83;;;21.90;;
13048;SDS011;6591;51.446;5.404;2023-05-10T03:17:15;26.63;;;18.93;;
13048;SDS011;6591;51.446;5.404;2023-05-10T03:20:08;25.90;;;18.77;;
13048;SDS011;6591;51.446;5.404;2023-05-10T03:22:45;22.77;;;17.97;;
13048;SDS011;6591;51.446;5.404;2023-05-10T03:25:18;24.13;;;18.90;;
13048;SDS011;6591;51.446;5.404;2023-05-10T03:27:47;24.67;;;18.77;;
13048;SDS011;6591;51.446;5.404;2023-05-10T03:30:16;26.53;;;19.47;;
13048;SDS011;6591;51.446;5.404;2023-05-10T03:32:45;24.83;;;19.23;;
13048;SDS011;6591;51.446;5.404;2023-05-10T03:35:15;23.07;;;17.90;;
13048;SDS011;6591;51.446;5.404;2023-05-10T03:37:43;25.30;;;19.67;;
13048;SDS011;6591;51.446;5.404;2023-05-10T03:40:10;24.90;;;19.07;;
13048;SDS011;6591;51.446;5.404;2023-05-10T03:42:40;25.70;;;19.43;;
13048;SDS011;6591;51.446;5.404;2023-05-10T03:45:07;25.07;;;18.87;;
13048;SDS011;6591;51.446;5.404;2023-05-10T03:47:35;27.27;;;18.77;;
13048;SDS011;6591;51.446;5.404;2023-05-10T03:50:02;27.43;;;19.63;;
13048;SDS011;6591;51.446;5.404;2023-05-10T03:52:30;26.80;;;20.80;;
13048;SDS011;6591;51.446;5.404;2023-05-10T03:54:58;28.20;;;19.60;;
13048;SDS011;6591;51.446;5.404;2023-05-10T03:57:25;30.23;;;21.57;;
13048;SDS011;6591;51.446;5.404;2023-05-10T03:59:52;28.63;;;20.73;;
13048;SDS011;6591;51.446;5.404;2023-05-10T04:02:18;29.63;;;20.50;;
13048;SDS011;6591;51.446;5.404;2023-05-10T04:04:46;29.63;;;20.83;;
13048;SDS011;6591;51.446;5.404;2023-05-10T04:07:13;38.73;;;24.17;;
13048;SDS011;6591;51.446;5.404;2023-05-10T04:09:40;36.87;;;24.43;;
13048;SDS011;6591;51.446;5.404;2023-05-10T04:12:07;41.20;;;25.83;;
13048;SDS011;6591;51.446;5.404;2023-05-10T04:14:36;43.90;;;27.30;;
13048;SDS011;6591;51.446;5.404;2023-05-10T04:17:03;43.10;;;27.43;;
13048;SDS011;6591;51.446;5.404;2023-05-10T04:19:30;46.45;;;28.00;;
13048;SDS011;6591;51.446;5.404;2023-05-10T04:21:58;45.40;;;28.90;;
13048;SDS011;6591;51.446;5.404;2023-05-10T04:24:26;47.27;;;30.73;;
13048;SDS011;6591;51.446;5.404;2023-05-10T04:26:53;55.67;;;31.43;;
13048;SDS011;6591;51.446;5.404;2023-05-10T04:29:23;45.27;;;29.27;;
13048;SDS011;6591;51.446;5.404;2023-05-10T04:31:50;48.13;;;29.40;;
13048;SDS011;6591;51.446;5.404;2023-05-10T04:34:17;50.97;;;31.20;;
13048;SDS011;6591;51.446;5.404;2023-05-10T04:36:44;45.97;;;29.00;;
13048;SDS011;6591;51.446;5.404;2023-05-10T04:39:11;49.20;;;30.63;;
13048;SDS011;6591;51.446;5.404;2023-05-10T04:41:39;44.10;;;29.63;;
13048;SDS011;6591;51.446;5.404;2023-05-10T04:44:06;46.57;;;29.53;;
13048;SDS011;6591;51.446;5.404;2023-05-10T04:46:33;44.73;;;27.77;;
13048;SDS011;6591;51.446;5.404;2023-05-10T04:49:01;41.53;;;26.90;;
13048;SDS011;6591;51.446;5.404;2023-05-10T04:51:27;38.63;;;26.37;;
13048;SDS011;6591;51.446;5.404;2023-05-10T04:53:54;42.07;;;27.03;;
13048;SDS011;6591;51.446;5.404;2023-05-10T04:56:31;37.70;;;24.83;;
13048;SDS011;6591;51.446;5.404;2023-05-10T04:58:59;34.60;;;24.13;;
13048;SDS011;6591;51.446;5.404;2023-05-10T05:01:26;33.77;;;22.77;;
13048;SDS011;6591;51.446;5.404;2023-05-10T05:03:53;34.33;;;23.87;;
13048;SDS011;6591;51.446;5.404;2023-05-10T05:06:21;30.77;;;20.27;;
13048;SDS011;6591;51.446;5.404;2023-05-10T05:08:48;31.03;;;20.97;;
13048;SDS011;6591;51.446;5.404;2023-05-10T05:11:16;28.30;;;20.00;;
13048;SDS011;6591;51.446;5.404;2023-05-10T05:13:44;28.80;;;19.60;;
13048;SDS011;6591;51.446;5.404;2023-05-10T05:16:11;24.97;;;18.60;;
13048;SDS011;6591;51.446;5.404;2023-05-10T05:18:38;25.23;;;18.73;;
13048;SDS011;6591;51.446;5.404;2023-05-10T05:21:17;26.70;;;18.80;;
13048;SDS011;6591;51.446;5.404;2023-05-10T05:23:46;27.90;;;18.93;;
13048;SDS011;6591;51.446;5.404;2023-05-10T05:26:13;27.23;;;18.77;;
13048;SDS011;6591;51.446;5.404;2023-05-10T05:28:41;24.47;;;17.67;;
13048;SDS011;6591;51.446;5.404;2023-05-10T05:31:08;22.83;;;17.40;;
13048;SDS011;6591;51.446;5.404;2023-05-10T05:33:36;24.73;;;17.70;;
13048;SDS011;6591;51.446;5.404;2023-05-10T05:36:03;23.33;;;17.63;;
13048;SDS011;6591;51.446;5.404;2023-05-10T05:38:32;23.17;;;17.30;;
13048;SDS011;6591;51.446;5.404;2023-05-10T05:40:59;22.92;;;16.60;;
13048;SDS011;6591;51.446;5.404;2023-05-10T05:43:26;18.73;;;15.53;;
13048;SDS011;6591;51.446;5.404;2023-05-10T05:45:53;20.83;;;16.13;;
13048;SDS011;6591;51.446;5.404;2023-05-10T05:48:21;22.23;;;16.43;;
13048;SDS011;6591;51.446;5.404;2023-05-10T05:50:48;22.23;;;17.00;;
13048;SDS011;6591;51.446;5.404;2023-05-10T05:53:15;20.63;;;15.83;;
13048;SDS011;6591;51.446;5.404;2023-05-10T05:55:52;21.70;;;16.40;;
13048;SDS011;6591;51.446;5.404;2023-05-10T05:58:21;21.10;;;16.50;;
13048;SDS011;6591;51.446;5.404;2023-05-10T06:00:50;20.93;;;15.73;;
13048;SDS011;6591;51.446;5.404;2023-05-10T06:03:18;20.30;;;15.27;;
13048;SDS011;6591;51.446;5.404;2023-05-10T06:05:46;18.43;;;14.73;;
13048;SDS011;6591;51.446;5.404;2023-05-10T06:08:14;19.92;;;16.42;;
13048;SDS011;6591;51.446;5.404;2023-05-10T06:10:41;20.48;;;15.48;;
13048;SDS011;6591;51.446;5.404;2023-05-10T06:13:08;21.52;;;15.95;;
13048;SDS011;6591;51.446;5.404;2023-05-10T06:15:35;20.00;;;15.75;;
13048;SDS011;6591;51.446;5.404;2023-05-10T06:18:02;20.00;;;16.15;;
13048;SDS011;6591;51.446;5.404;2023-05-10T06:20:29;19.67;;;14.65;;
13048;SDS011;6591;51.446;5.404;2023-05-10T06:22:57;17.50;;;15.07;;
13048;SDS011;6591;51.446;5.404;2023-05-10T06:25:25;18.67;;;14.40;;
13048;SDS011;6591;51.446;5.404;2023-05-10T06:27:52;19.80;;;15.43;;
13048;SDS011;6591;51.446;5.404;2023-05-10T06:30:24;17.95;;;15.23;;
13048;SDS011;6591;51.446;5.404;2023-05-10T06:32:55;17.77;;;14.63;;
13048;SDS011;6591;51.446;5.404;2023-05-10T06:35:23;18.50;;;14.52;;
13048;SDS011;6591;51.446;5.404;2023-05-10T06:37:50;19.20;;;15.20;;
13048;SDS011;6591;51.446;5.404;2023-05-10T06:40:17;18.77;;;14.80;;
13048;SDS011;6591;51.446;5.404;2023-05-10T06:42:45;20.40;;;15.27;;
13048;SDS011;6591;51.446;5.404;2023-05-10T06:45:14;20.30;;;14.88;;
13048;SDS011;6591;51.446;5.404;2023-05-10T06:47:43;17.77;;;15.88;;
13048;SDS011;6591;51.446;5.404;2023-05-10T06:50:10;18.23;;;15.32;;
13048;SDS011;6591;51.446;5.404;2023-05-10T06:52:37;17.80;;;14.30;;
13048;SDS011;6591;51.446;5.404;2023-05-10T06:55:05;16.55;;;14.38;;
13048;SDS011;6591;51.446;5.404;2023-05-10T06:57:33;17.95;;;16.02;;
13048;SDS011;6591;51.446;5.404;2023-05-10T07:00:00;19.13;;;15.52;;
13048;SDS011;6591;51.446;5.404;2023-05-10T07:02:30;18.95;;;14.48;;
13048;SDS011;6591;51.446;5.404;2023-05-10T07:04:57;18.77;;;15.68;;
13048;SDS011;6591;51.446;5.404;2023-05-10T07:07:28;16.58;;;14.52;;
13048;SDS011;6591;51.446;5.404;2023-05-10T07:09:55;16.58;;;14.48;;
13048;SDS011;6591;51.446;5.404;2023-05-10T07:12:24;16.75;;;14.65;;
13048;SDS011;6591;51.446;5.404;2023-05-10T07:14:51;17.50;;;13.68;;
13048;SDS011;6591;51.446;5.404;2023-05-10T07:17:18;17.85;;;14.35;;
13048;SDS011;6591;51.446;5.404;2023-05-10T07:19:46;15.00;;;13.35;;
13048;SDS011;6591;51.446;5.404;2023-05-10T07:22:13;14.18;;;12.32;;
13048;SDS011;6591;51.446;5.404;2023-05-10T07:24:41;13.30;;;10.90;;
13048;SDS011;6591;51.446;5.404;2023-05-10T07:27:08;15.98;;;11.82;;
13048;SDS011;6591;51.446;5.404;2023-05-10T07:29:35;12.23;;;10.73;;
13048;SDS011;6591;51.446;5.404;2023-05-10T07:32:03;13.30;;;10.73;;
13048;SDS011;6591;51.446;5.404;2023-05-10T07:34:32;12.57;;;9.65;;
13048;SDS011;6591;51.446;5.404;2023-05-10T07:36:59;12.57;;;9.52;;
13048;SDS011;6591;51.446;5.404;2023-05-10T07:39:29;12.15;;;10.02;;
13048;SDS011;6591;51.446;5.404;2023-05-10T07:41:56;14.13;;;9.52;;
13048;SDS011;6591;51.446;5.404;2023-05-10T07:44:23;10.82;;;9.23;;
13048;SDS011;6591;51.446;5.404;2023-05-10T07:46:50;12.52;;;9.23;;
13048;SDS011;6591;51.446;5.404;2023-05-10T07:49:17;10.35;;;8.13;;
13048;SDS011;6591;51.446;5.404;2023-05-10T07:51:44;8.23;;;7.28;;
13048;SDS011;6591;51.446;5.404;2023-05-10T07:54:11;9.40;;;7.43;;
13048;SDS011;6591;51.446;5.404;2023-05-10T07:56:38;11.40;;;7.25;;
13048;SDS011;6591;51.446;5.404;2023-05-10T07:59:14;7.65;;;6.47;;
13048;SDS011;6591;51.446;5.404;2023-05-10T08:01:43;7.70;;;6.13;;
13048;SDS011;6591;51.446;5.404;2023-05-10T08:04:10;7.70;;;5.55;;
13048;SDS011;6591;51.446;5.404;2023-05-10T08:06:38;5.95;;;5.35;;
13048;SDS011;6591;51.446;5.404;2023-05-10T08:09:06;8.20;;;5.15;;
13048;SDS011;6591;51.446;5.404;2023-05-10T08:11:35;7.22;;;5.50;;
13048;SDS011;6591;51.446;5.404;2023-05-10T08:14:02;7.47;;;5.50;;
13048;SDS011;6591;51.446;5.404;2023-05-10T08:16:29;8.02;;;6.00;;
13048;SDS011;6591;51.446;5.404;2023-05-10T08:18:56;7.22;;;6.18;;
13048;SDS011;6591;51.446;5.404;2023-05-10T08:21:23;8.52;;;6.28;;
13048;SDS011;6591;51.446;5.404;2023-05-10T08:23:50;6.18;;;5.57;;
13048;SDS011;6591;51.446;5.404;2023-05-10T08:26:17;11.00;;;5.97;;
13048;SDS011;6591;51.446;5.404;2023-05-10T08:28:44;6.60;;;5.68;;
13048;SDS011;6591;51.446;5.404;2023-05-10T08:31:11;7.78;;;6.10;;
13048;SDS011;6591;51.446;5.404;2023-05-10T08:33:38;6.50;;;5.57;;
13048;SDS011;6591;51.446;5.404;2023-05-10T08:36:08;6.22;;;5.22;;
13048;SDS011;6591;51.446;5.404;2023-05-10T08:38:35;6.65;;;5.18;;
13048;SDS011;6591;51.446;5.404;2023-05-10T08:41:04;8.15;;;4.88;;
13048;SDS011;6591;51.446;5.404;2023-05-10T08:43:32;5.85;;;4.82;;
13048;SDS011;6591;51.446;5.404;2023-05-10T08:46:02;5.75;;;4.85;;
13048;SDS011;6591;51.446;5.404;2023-05-10T08:48:34;5.45;;;4.35;;
13048;SDS011;6591;51.446;5.404;2023-05-10T08:51:02;5.15;;;4.10;;
13048;SDS011;6591;51.446;5.404;2023-05-10T08:53:30;4.80;;;4.05;;
13048;SDS011;6591;51.446;5.404;2023-05-10T08:56:02;4.50;;;4.07;;
13048;SDS011;6591;51.446;5.404;2023-05-10T08:58:30;4.57;;;4.18;;
13048;SDS011;6591;51.446;5.404;2023-05-10T09:00:58;5.35;;;4.72;;
13048;SDS011;6591;51.446;5.404;2023-05-10T09:03:27;5.22;;;4.38;;
13048;SDS011;6591;51.446;5.404;2023-05-10T09:05:54;5.70;;;4.93;;
13048;SDS011;6591;51.446;5.404;2023-05-10T09:08:26;6.10;;;4.82;;
13048;SDS011;6591;51.446;5.404;2023-05-10T09:10:54;5.82;;;4.28;;
13048;SDS011;6591;51.446;5.404;2023-05-10T09:13:22;5.63;;;4.93;;
13048;SDS011;6591;51.446;5.404;2023-05-10T09:15:50;5.15;;;4.57;;
13048;SDS011;6591;51.446;5.404;2023-05-10T09:18:19;5.28;;;4.78;;
13048;SDS011;6591;51.446;5.404;2023-05-10T09:20:46;6.18;;;4.90;;
13048;SDS011;6591;51.446;5.404;2023-05-10T09:23:14;4.25;;;3.88;;
13048;SDS011;6591;51.446;5.404;2023-05-10T09:25:41;4.95;;;4.55;;
13048;SDS011;6591;51.446;5.404;2023-05-10T09:28:10;4.88;;;4.35;;
13048;SDS011;6591;51.446;5.404;2023-05-10T09:30:38;5.68;;;5.10;;
13048;SDS011;6591;51.446;5.404;2023-05-10T09:33:05;5.40;;;4.88;;
13048;SDS011;6591;51.446;5.404;2023-05-10T09:35:33;5.88;;;5.28;;
13048;SDS011;6591;51.446;5.404;2023-05-10T09:38:03;5.53;;;5.03;;
13048;SDS011;6591;51.446;5.404;2023-05-10T09:40:31;6.55;;;5.20;;
13048;SDS011;6591;51.446;5.404;2023-05-10T09:45:33;5.57;;;5.05;;
13048;SDS011;6591;51.446;5.404;2023-05-10T09:48:04;6.07;;;5.55;;
13048;SDS011;6591;51.446;5.404;2023-05-10T09:50:33;6.22;;;5.63;;
13048;SDS011;6591;51.446;5.404;2023-05-10T09:53:01;5.75;;;5.25;;
13048;SDS011;6591;51.446;5.404;2023-05-10T09:55:40;5.72;;;5.22;;
13048;SDS011;6591;51.446;5.404;2023-05-10T09:58:13;6.57;;;5.40;;
13048;SDS011;6591;51.446;5.404;2023-05-10T10:00:41;6.22;;;5.07;;
13048;SDS011;6591;51.446;5.404;2023-05-10T10:03:13;6.03;;;5.47;;
13048;SDS011;6591;51.446;5.404;2023-05-10T10:05:43;5.68;;;5.10;;
13048;SDS011;6591;51.446;5.404;2023-05-10T10:08:12;5.90;;;5.40;;
13048;SDS011;6591;51.446;5.404;2023-05-10T10:10:41;5.50;;;5.00;;
13048;SDS011;6591;51.446;5.404;2023-05-10T10:13:11;4.60;;;4.20;;
13048;SDS011;6591;51.446;5.404;2023-05-10T10:15:39;4.57;;;4.18;;
13048;SDS011;6591;51.446;5.404;2023-05-10T10:18:08;4.28;;;3.60;;
13048;SDS011;6591;51.446;5.404;2023-05-10T10:20:41;3.92;;;3.45;;
13048;SDS011;6591;51.446;5.404;2023-05-10T10:23:09;4.50;;;3.80;;
13048;SDS011;6591;51.446;5.404;2023-05-10T10:25:36;3.50;;;3.08;;
13048;SDS011;6591;51.446;5.404;2023-05-10T10:28:16;4.55;;;3.72;;
13048;SDS011;6591;51.446;5.404;2023-05-10T10:30:53;4.65;;;3.40;;
13048;SDS011;6591;51.446;5.404;2023-05-10T10:36:23;6.07;;;5.50;;
13048;SDS011;6591;51.446;5.404;2023-05-10T10:49:50;10.95;;;8.30;;
13048;SDS011;6591;51.446;5.404;2023-05-10T10:52:30;8.77;;;7.95;;
13048;SDS011;6591;51.446;5.404;2023-05-10T10:55:19;8.90;;;8.07;;
13048;SDS011;6591;51.446;5.404;2023-05-10T10:57:56;8.95;;;8.02;;
13048;SDS011;6591;51.446;5.404;2023-05-10T11:00:36;10.27;;;9.18;;
13048;SDS011;6591;51.446;5.404;2023-05-10T11:03:08;10.70;;;9.65;;
13048;SDS011;6591;51.446;5.404;2023-05-10T11:05:45;9.02;;;8.13;;
13048;SDS011;6591;51.446;5.404;2023-05-10T11:08:27;9.48;;;8.57;;
13048;SDS011;6591;51.446;5.404;2023-05-10T11:11:06;10.43;;;9.43;;
13048;SDS011;6591;51.446;5.404;2023-05-10T11:13:54;10.68;;;9.13;;
13048;SDS011;6591;51.446;5.404;2023-05-10T11:16:43;11.05;;;9.95;;
13048;SDS011;6591;51.446;5.404;2023-05-10T11:19:11;11.07;;;8.88;;
13048;SDS011;6591;51.446;5.404;2023-05-10T11:24:31;10.05;;;8.98;;
13048;SDS011;6591;51.446;5.404;2023-05-10T11:26:59;10.13;;;9.20;;
13048;SDS011;6591;51.446;5.404;2023-05-10T11:29:27;9.70;;;8.77;;
13048;SDS011;6591;51.446;5.404;2023-05-10T11:31:56;9.48;;;8.52;;
13048;SDS011;6591;51.446;5.404;2023-05-10T11:34:26;9.18;;;7.97;;
13048;SDS011;6591;51.446;5.404;2023-05-10T11:37:01;9.57;;;8.65;;
13048;SDS011;6591;51.446;5.404;2023-05-10T11:39:29;9.30;;;8.10;;
13048;SDS011;6591;51.446;5.404;2023-05-10T11:41:58;10.65;;;9.27;;
13048;SDS011;6591;51.446;5.404;2023-05-10T11:44:29;13.40;;;10.48;;
13048;SDS011;6591;51.446;5.404;2023-05-10T11:47:01;11.65;;;10.48;;
13048;SDS011;6591;51.446;5.404;2023-05-10T11:49:29;11.45;;;10.35;;
13048;SDS011;6591;51.446;5.404;2023-05-10T11:52:04;12.00;;;10.77;;
13048;SDS011;6591;51.446;5.404;2023-05-10T11:54:35;13.18;;;10.48;;
13048;SDS011;6591;51.446;5.404;2023-05-10T11:57:02;14.68;;;11.50;;
13048;SDS011;6591;51.446;5.404;2023-05-10T11:59:30;13.18;;;11.77;;
13048;SDS011;6591;51.446;5.404;2023-05-10T12:01:57;12.73;;;11.40;;
13048;SDS011;6591;51.446;5.404;2023-05-10T12:04:24;13.02;;;11.63;;
13048;SDS011;6591;51.446;5.404;2023-05-10T12:06:52;13.32;;;11.75;;
13048;SDS011;6591;51.446;5.404;2023-05-10T12:09:19;16.95;;;13.43;;
13048;SDS011;6591;51.446;5.404;2023-05-10T12:12:06;15.30;;;12.88;;
13048;SDS011;6591;51.446;5.404;2023-05-10T12:14:36;15.05;;;12.63;;
13048;SDS011;6591;51.446;5.404;2023-05-10T12:17:03;16.45;;;13.38;;
13048;SDS011;6591;51.446;5.404;2023-05-10T12:19:37;13.50;;;11.65;;
13048;SDS011;6591;51.446;5.404;2023-05-10T12:22:05;12.68;;;10.70;;
13048;SDS011;6591;51.446;5.404;2023-05-10T12:24:36;8.75;;;7.43;;
13048;SDS011;6591;51.446;5.404;2023-05-10T12:27:05;7.95;;;6.30;;
13048;SDS011;6591;51.446;5.404;2023-05-10T12:29:34;5.60;;;4.70;;
13048;SDS011;6591;51.446;5.404;2023-05-10T12:32:02;5.13;;;3.90;;
13048;SDS011;6591;51.446;5.404;2023-05-10T12:34:33;5.75;;;3.08;;
13048;SDS011;6591;51.446;5.404;2023-05-10T12:37:02;3.30;;;3.00;;
13048;SDS011;6591;51.446;5.404;2023-05-10T12:39:40;3.53;;;3.22;;
13048;SDS011;6591;51.446;5.404;2023-05-10T12:42:10;3.38;;;2.83;;
13048;SDS011;6591;51.446;5.404;2023-05-10T12:44:37;3.78;;;3.00;;
13048;SDS011;6591;51.446;5.404;2023-05-10T12:47:04;4.43;;;3.40;;
13048;SDS011;6591;51.446;5.404;2023-05-10T12:49:32;4.40;;;3.10;;
13048;SDS011;6591;51.446;5.404;2023-05-10T12:52:00;5.40;;;3.45;;
13048;SDS011;6591;51.446;5.404;2023-05-10T12:54:27;3.92;;;3.53;;
13048;SDS011;6591;51.446;5.404;2023-05-10T12:56:54;4.03;;;3.63;;
13048;SDS011;6591;51.446;5.404;2023-05-10T12:59:21;3.67;;;3.38;;
13048;SDS011;6591;51.446;5.404;2023-05-10T13:01:49;5.32;;;4.65;;
13048;SDS011;6591;51.446;5.404;2023-05-10T13:04:16;5.63;;;4.63;;
13048;SDS011;6591;51.446;5.404;2023-05-10T13:06:43;7.23;;;6.03;;
13048;SDS011;6591;51.446;5.404;2023-05-10T13:09:10;7.13;;;5.82;;
13048;SDS011;6591;51.446;5.404;2023-05-10T13:11:37;7.93;;;7.13;;
13048;SDS011;6591;51.446;5.404;2023-05-10T13:14:04;9.18;;;8.13;;
13048;SDS011;6591;51.446;5.404;2023-05-10T13:16:31;9.00;;;8.13;;
13048;SDS011;6591;51.446;5.404;2023-05-10T13:18:59;9.93;;;8.93;;
13048;SDS011;6591;51.446;5.404;2023-05-10T13:21:26;10.13;;;9.00;;
13048;SDS011;6591;51.446;5.404;2023-05-10T13:23:53;10.20;;;9.02;;
13048;SDS011;6591;51.446;5.404;2023-05-10T13:26:20;11.53;;;9.73;;
13048;SDS011;6591;51.446;5.404;2023-05-10T13:28:47;10.43;;;9.32;;
13048;SDS011;6591;51.446;5.404;2023-05-10T13:31:15;12.15;;;10.88;;
13048;SDS011;6591;51.446;5.404;2023-05-10T13:33:42;12.93;;;11.07;;
13048;SDS011;6591;51.446;5.404;2023-05-10T13:36:09;12.65;;;11.18;;
13048;SDS011;6591;51.446;5.404;2023-05-10T13:38:36;12.88;;;10.15;;
13048;SDS011;6591;51.446;5.404;2023-05-10T13:41:03;14.10;;;12.20;;
13048;SDS011;6591;51.446;5.404;2023-05-10T13:43:30;12.33;;;10.93;;
13048;SDS011;6591;51.446;5.404;2023-05-10T13:45:57;11.33;;;9.60;;
13048;SDS011;6591;51.446;5.404;2023-05-10T13:48:24;11.77;;;9.10;;
13048;SDS011;6591;51.446;5.404;2023-05-10T13:50:53;9.53;;;8.20;;
13048;SDS011;6591;51.446;5.404;2023-05-10T13:53:20;8.90;;;7.93;;
13048;SDS011;6591;51.446;5.404;2023-05-10T13:55:47;8.27;;;6.87;;
13048;SDS011;6591;51.446;5.404;2023-05-10T13:58:15;8.00;;;7.20;;
13048;SDS011;6591;51.446;5.404;2023-05-10T14:00:42;8.13;;;7.00;;
13048;SDS011;6591;51.446;5.404;2023-05-10T14:03:09;7.17;;;6.47;;
13048;SDS011;6591;51.446;5.404;2023-05-10T14:05:37;7.67;;;6.37;;
13048;SDS011;6591;51.446;5.404;2023-05-10T14:08:04;7.23;;;5.70;;
13048;SDS011;6591;51.446;5.404;2023-05-10T14:10:31;6.53;;;5.17;;
13048;SDS011;6591;51.446;5.404;2023-05-10T14:12:58;5.43;;;4.90;;
13048;SDS011;6591;51.446;5.404;2023-05-10T14:15:25;5.50;;;4.30;;
13048;SDS011;6591;51.446;5.404;2023-05-10T14:17:52;10.10;;;3.90;;
13048;SDS011;6591;51.446;5.404;2023-05-10T14:20:20;4.57;;;3.10;;
13048;SDS011;6591;51.446;5.404;2023-05-10T14:22:46;3.40;;;2.97;;
13048;SDS011;6591;51.446;5.404;2023-05-10T14:25:14;3.63;;;3.33;;
13048;SDS011;6591;51.446;5.404;2023-05-10T14:27:41;3.47;;;2.37;;
13048;SDS011;6591;51.446;5.404;2023-05-10T14:30:08;4.30;;;2.90;;
13048;SDS011;6591;51.446;5.404;2023-05-10T14:32:36;4.70;;;4.10;;
13048;SDS011;6591;51.446;5.404;2023-05-10T14:35:03;6.17;;;4.60;;
13048;SDS011;6591;51.446;5.404;2023-05-10T14:37:32;6.33;;;5.47;;
13048;SDS011;6591;51.446;5.404;2023-05-10T14:39:59;5.57;;;4.80;;
13048;SDS011;6591;51.446;5.404;2023-05-10T14:42:26;6.07;;;5.47;;
13048;SDS011;6591;51.446;5.404;2023-05-10T14:44:54;6.00;;;5.00;;
13048;SDS011;6591;51.446;5.404;2023-05-10T14:47:21;6.23;;;4.67;;
13048;SDS011;6591;51.446;5.404;2023-05-10T14:49:48;6.30;;;5.33;;
13048;SDS011;6591;51.446;5.404;2023-05-10T14:52:15;7.27;;;4.70;;
13048;SDS011;6591;51.446;5.404;2023-05-10T14:54:43;8.30;;;4.73;;
13048;SDS011;6591;51.446;5.404;2023-05-10T14:57:09;9.47;;;5.30;;
13048;SDS011;6591;51.446;5.404;2023-05-10T14:59:36;8.77;;;6.43;;
13048;SDS011;6591;51.446;5.404;2023-05-10T15:02:04;8.90;;;6.30;;
13048;SDS011;6591;51.446;5.404;2023-05-10T15:04:32;8.70;;;5.80;;
13048;SDS011;6591;51.446;5.404;2023-05-10T15:06:59;7.53;;;5.63;;
13048;SDS011;6591;51.446;5.404;2023-05-10T15:09:26;8.60;;;6.27;;
13048;SDS011;6591;51.446;5.404;2023-05-10T15:11:54;8.43;;;6.63;;
13048;SDS011;6591;51.446;5.404;2023-05-10T15:14:22;7.17;;;6.37;;
13048;SDS011;6591;51.446;5.404;2023-05-10T15:16:49;8.30;;;6.70;;
13048;SDS011;6591;51.446;5.404;2023-05-10T15:19:16;8.20;;;6.93;;
13048;SDS011;6591;51.446;5.404;2023-05-10T15:21:43;7.40;;;6.57;;
13048;SDS011;6591;51.446;5.404;2023-05-10T15:24:10;10.27;;;8.67;;
13048;SDS011;6591;51.446;5.404;2023-05-10T15:26:37;8.07;;;7.00;;